Time;durP1;ratioP1;P1;durP2;ratioP2;P2;SDS_P1;SDS_P2;PMS_P1;PMS_P2;Temp;Humidity;BMP_temperature;BMP_pressure;BME280_temperature;BME280_humidity;BME280_pressure;Samples;Min_cycle;Max_cycle;Signal;HPM_P1;HPM_P2
2023/06/06 00:01:40;;;;;;;6.90;2.57;;;17.40;1.00;;;;;;4947921;28;20418;-69
2023/06/06 00:04:05;;;;;;;6.43;2.65;;;17.30;1.00;;;;;;4949394;28;20929;-68
2023/06/06 00:06:33;;;;;;;7.10;2.20;;;17.20;1.00;;;;;;4949665;28;20409;-69
2023/06/06 00:08:59;;;;;;;7.05;2.75;;;17.10;1.00;;;;;;4950297;28;21064;-69
2023/06/06 00:11:28;;;;;;;7.50;2.75;;;17.00;4.30;;;;;;4948797;28;20716;-68
2023/06/06 00:13:56;;;;;;;6.53;2.60;;;17.00;99.90;;;;;;4932543;29;20410;-68
2023/06/06 00:16:23;;;;;;;8.07;2.88;;;17.00;99.90;;;;;;4945336;28;20836;-69
2023/06/06 00:18:50;;;;;;;9.40;3.00;;;17.00;99.90;;;;;;4948782;28;20467;-69
2023/06/06 00:21:16;;;;;;;8.50;2.70;;;16.90;1.00;;;;;;4949509;28;20509;-69
2023/06/06 00:23:45;;;;;;;7.20;2.70;;;16.90;1.00;;;;;;4949570;28;20879;-69
2023/06/06 00:26:10;;;;;;;7.93;3.08;;;16.90;1.00;;;;;;4948799;28;20420;-69
2023/06/06 00:28:36;;;;;;;9.00;3.00;;;16.90;1.00;;;;;;4949241;28;20426;-69
2023/06/06 00:31:01;;;;;;;7.57;3.23;;;16.80;1.00;;;;;;4949309;28;20414;-69
2023/06/06 00:33:27;;;;;;;8.20;2.83;;;16.80;38.50;;;;;;4949980;29;20412;-68
2023/06/06 00:35:53;;;;;;;7.38;2.90;;;16.80;1.00;;;;;;4962710;28;20479;-69
2023/06/06 00:38:18;;;;;;;8.00;3.00;;;16.80;1.00;;;;;;4953532;28;20496;-69
2023/06/06 00:40:44;;;;;;;7.10;3.00;;;16.70;1.00;;;;;;4949888;29;20413;-69
2023/06/06 00:43:10;;;;;;;7.75;3.05;;;16.70;1.00;;;;;;4949563;28;20405;-69
2023/06/06 00:45:36;;;;;;;8.97;3.10;;;16.70;1.00;;;;;;4950650;29;20409;-69
2023/06/06 00:48:02;;;;;;;7.70;3.10;;;16.70;1.00;;;;;;4950296;29;20529;-69
2023/06/06 00:50:28;;;;;;;6.80;2.80;;;16.80;1.00;;;;;;4950122;28;20421;-69
2023/06/06 00:52:55;;;;;;;8.30;2.95;;;16.80;1.00;;;;;;4949410;29;20421;-69
2023/06/06 00:55:21;;;;;;;7.90;2.75;;;16.80;1.00;;;;;;4949477;29;20456;-69
2023/06/06 00:57:48;;;;;;;7.10;2.88;;;16.70;1.00;;;;;;4949459;29;20510;-69
2023/06/06 01:00:15;;;;;;;9.70;3.10;;;16.60;99.90;;;;;;4949918;28;20397;-69
2023/06/06 01:02:43;;;;;;;7.03;2.75;;;16.50;1.00;;;;;;4949899;29;20835;-69
2023/06/06 01:05:10;;;;;;;7.40;3.30;;;16.40;1.00;;;;;;4955256;28;20789;-69
2023/06/06 01:07:36;;;;;;;9.07;3.20;;;16.30;99.90;;;;;;4963001;28;20446;-68
2023/06/06 01:10:07;;;;;;;9.43;3.20;;;16.20;99.90;;;;;;4966126;28;20487;-69
2023/06/06 01:13:22;;;;;;;8.75;3.65;;;16.30;1.00;;;;;;4954222;29;20406;-69
2023/06/06 01:16:02;;;;;;;9.65;3.70;;;16.30;1.00;;;;;;4926138;28;20492;-69
2023/06/06 01:18:29;;;;;;;7.70;2.90;;;16.20;1.00;;;;;;4947713;28;20414;-69
2023/06/06 01:20:55;;;;;;;7.35;2.72;;;16.20;1.00;;;;;;4940391;28;20447;-69
2023/06/06 01:23:21;;;;;;;8.68;3.03;;;16.10;1.00;;;;;;4951622;28;20421;-69
2023/06/06 01:25:48;;;;;;;7.32;3.05;;;16.00;1.00;;;;;;4953591;28;20522;-69
2023/06/06 01:28:17;;;;;;;7.45;3.03;;;15.80;99.90;;;;;;4951495;29;20446;-69
2023/06/06 01:30:44;;;;;;;7.38;2.75;;;15.70;99.90;;;;;;4953616;28;20413;-69
2023/06/06 01:33:13;;;;;;;7.85;3.33;;;15.60;99.90;;;;;;4950204;28;20808;-69
2023/06/06 01:35:54;;;;;;;8.02;3.10;;;15.50;1.00;;;;;;4940079;29;20419;-69
2023/06/06 01:38:22;;;;;;;7.82;3.40;;;15.50;1.00;;;;;;4957552;29;20469;-69
2023/06/06 01:40:52;;;;;;;10.07;3.90;;;15.60;1.00;;;;;;4947295;29;20420;-69
2023/06/06 01:43:22;;;;;;;8.90;4.10;;;15.70;1.00;;;;;;4952562;29;20908;-68
2023/06/06 01:45:49;;;;;;;9.02;3.35;;;15.80;35.90;;;;;;4939747;29;20413;-68
2023/06/06 01:48:16;;;;;;;10.73;4.00;;;15.80;1.00;;;;;;4950526;28;20470;-69
2023/06/06 01:50:41;;;;;;;8.45;3.88;;;15.80;1.00;;;;;;4952543;28;20473;-69
2023/06/06 01:53:07;;;;;;;8.07;3.67;;;15.90;1.00;;;;;;4948981;29;20906;-69
2023/06/06 01:55:36;;;;;;;10.52;3.70;;;15.80;99.90;;;;;;4951309;28;20430;-69
2023/06/06 01:58:03;;;;;;;8.75;3.63;;;15.70;1.00;;;;;;4954483;28;20401;-69
2023/06/06 02:00:29;;;;;;;8.30;3.45;;;15.70;1.00;;;;;;4954940;28;20422;-69
2023/06/06 02:02:54;;;;;;;8.38;3.20;;;15.60;1.00;;;;;;4952717;28;20773;-68
2023/06/06 02:05:21;;;;;;;8.13;3.50;;;15.60;1.00;;;;;;4970263;28;20484;-69
2023/06/06 02:07:49;;;;;;;8.60;3.80;;;15.50;1.00;;;;;;4952669;29;20429;-69
2023/06/06 02:10:15;;;;;;;9.48;4.18;;;15.50;99.90;;;;;;4951762;28;20466;-69
2023/06/06 02:12:41;;;;;;;9.18;3.95;;;15.50;99.90;;;;;;4955689;28;20953;-70
2023/06/06 02:15:07;;;;;;;9.27;4.10;;;15.50;99.90;;;;;;4951387;28;20409;-69
2023/06/06 02:17:33;;;;;;;8.48;3.90;;;15.50;99.90;;;;;;4951224;28;20621;-69
2023/06/06 02:19:59;;;;;;;8.53;3.90;;;15.50;99.90;;;;;;4952689;28;20603;-69
2023/06/06 02:22:24;;;;;;;9.37;3.83;;;15.50;99.90;;;;;;4952145;28;20417;-69
2023/06/06 02:24:52;;;;;;;8.57;3.58;;;15.50;3.70;;;;;;4952013;29;20413;-69
2023/06/06 02:27:19;;;;;;;7.78;3.50;;;15.40;99.90;;;;;;4949369;28;20433;-69
2023/06/06 02:29:45;;;;;;;9.77;4.00;;;15.30;99.90;;;;;;4932933;29;20510;-69
2023/06/06 02:32:11;;;;;;;7.67;3.60;;;15.30;99.90;;;;;;4945871;28;20485;-69
2023/06/06 02:34:37;;;;;;;8.88;3.90;;;15.10;1.00;;;;;;4968507;28;20483;-69
2023/06/06 02:37:06;;;;;;;8.63;3.70;;;15.10;1.00;;;;;;4947577;29;20451;-69
2023/06/06 02:39:33;;;;;;;8.80;3.60;;;15.10;1.00;;;;;;4939310;28;20435;-69
2023/06/06 02:41:59;;;;;;;10.52;4.10;;;14.90;1.00;;;;;;4952322;28;20418;-69
2023/06/06 02:44:26;;;;;;;9.80;3.55;;;14.90;99.90;;;;;;4954429;28;20447;-69
2023/06/06 02:46:52;;;;;;;9.15;4.00;;;14.80;99.90;;;;;;4952965;28;20433;-69
2023/06/06 02:49:18;;;;;;;8.50;3.80;;;14.80;99.90;;;;;;4951490;28;20424;-69
2023/06/06 02:51:44;;;;;;;9.07;4.15;;;14.70;1.00;;;;;;4982116;28;20433;-69
2023/06/06 02:54:11;;;;;;;7.47;3.35;;;14.70;99.90;;;;;;4991077;28;20913;-69
2023/06/06 02:56:37;;;;;;;7.45;2.90;;;14.70;99.90;;;;;;4979704;28;20457;-69
2023/06/06 02:59:03;;;;;;;9.80;4.10;;;14.70;99.90;;;;;;4991087;28;20827;-69
2023/06/06 03:01:30;;;;;;;8.52;4.05;;;14.70;99.90;;;;;;4978968;28;20415;-69
2023/06/06 03:03:56;;;;;;;8.93;4.35;;;14.60;1.00;;;;;;4970865;28;20404;-69
2023/06/06 03:06:22;;;;;;;8.80;3.70;;;14.50;1.00;;;;;;4968979;28;20758;-69
2023/06/06 03:08:54;;;;;;;9.27;3.97;;;14.60;1.00;;;;;;4970964;28;20428;-69
2023/06/06 03:11:21;;;;;;;8.60;4.30;;;14.50;1.00;;;;;;4971347;28;20915;-69
2023/06/06 03:13:46;;;;;;;9.00;4.00;;;14.50;1.00;;;;;;4953590;28;20412;-69
2023/06/06 03:16:15;;;;;;;8.75;3.22;;;14.50;1.00;;;;;;4970809;28;20768;-69
2023/06/06 03:18:41;;;;;;;11.02;6.57;;;14.30;99.90;;;;;;4971106;28;20907;-69
2023/06/06 03:21:07;;;;;;;10.10;4.80;;;14.20;1.00;;;;;;4966779;28;20408;-69
2023/06/06 03:23:34;;;;;;;9.47;3.90;;;14.20;1.00;;;;;;4971153;28;20487;-69
2023/06/06 03:26:00;;;;;;;8.20;3.90;;;14.20;1.00;;;;;;4950720;29;20434;-69
2023/06/06 03:28:25;;;;;;;10.90;4.40;;;14.20;1.00;;;;;;4968161;28;20436;-69
2023/06/06 03:30:51;;;;;;;8.02;3.97;;;14.30;1.00;;;;;;4974828;28;20825;-69
2023/06/06 03:33:16;;;;;;;9.43;4.07;;;14.30;99.90;;;;;;4969612;28;20419;-69
2023/06/06 03:35:43;;;;;;;8.97;4.10;;;14.40;93.90;;;;;;4989298;28;20417;-69
2023/06/06 03:38:08;;;;;;;9.98;3.45;;;14.40;99.90;;;;;;4970365;28;20763;-69
2023/06/06 03:40:35;;;;;;;9.53;4.33;;;14.40;99.90;;;;;;4988148;28;20432;-68
2023/06/06 03:43:01;;;;;;;8.00;3.90;;;14.40;60.40;;;;;;4987461;28;20405;-68
2023/06/06 03:45:27;;;;;;;9.48;4.15;;;14.40;43.60;;;;;;4980074;28;20518;-68
2023/06/06 03:47:53;;;;;;;8.57;3.57;;;14.50;1.00;;;;;;4965369;28;20578;-68
2023/06/06 03:50:19;;;;;;;11.23;4.73;;;14.40;1.00;;;;;;4966760;28;20486;-68
2023/06/06 03:52:45;;;;;;;8.90;4.03;;;14.40;1.00;;;;;;4955428;28;20895;-68
2023/06/06 03:55:11;;;;;;;8.93;4.00;;;14.30;1.00;;;;;;4949249;29;20421;-68
2023/06/06 03:57:37;;;;;;;8.63;3.80;;;14.20;1.00;;;;;;4949251;29;20410;-69
2023/06/06 04:00:11;;;;;;;7.70;3.63;;;14.20;1.00;;;;;;4950136;29;20393;-69
2023/06/06 04:02:38;;;;;;;8.73;3.90;;;14.20;99.90;;;;;;4950110;29;20401;-68
2023/06/06 04:05:04;;;;;;;9.25;4.32;;;14.30;68.00;;;;;;4950821;28;20416;-68
2023/06/06 04:07:31;;;;;;;9.60;4.10;;;14.40;11.50;;;;;;4958261;28;20430;-68
2023/06/06 04:09:56;;;;;;;9.38;4.30;;;14.50;1.00;;;;;;4954676;29;20421;-68
2023/06/06 04:12:22;;;;;;;10.07;4.40;;;14.70;1.00;;;;;;4951502;28;20489;-68
2023/06/06 04:14:48;;;;;;;8.83;4.00;;;14.70;1.00;;;;;;4955770;28;20414;-68
2023/06/06 04:17:13;;;;;;;9.90;4.03;;;14.90;1.00;;;;;;4954043;28;20413;-74
2023/06/06 04:19:39;;;;;;;9.57;4.07;;;15.00;99.90;;;;;;4941369;28;20838;-69
2023/06/06 04:22:05;;;;;;;10.50;4.40;;;15.00;99.90;;;;;;4929822;29;20427;-69
2023/06/06 04:24:31;;;;;;;11.40;5.00;;;15.10;99.90;;;;;;4942114;28;20501;-69
2023/06/06 04:27:03;;;;;;;9.48;4.40;;;15.10;1.00;;;;;;4950127;28;20475;-69
2023/06/06 04:29:34;;;;;;;8.55;4.15;;;15.20;99.90;;;;;;4952211;29;21032;-69
2023/06/06 04:32:01;;;;;;;7.43;3.65;;;15.30;99.90;;;;;;4951714;28;20544;-69
2023/06/06 04:34:30;;;;;;;11.95;4.20;;;15.50;99.90;;;;;;4951307;29;20426;-69
2023/06/06 04:37:04;;;;;;;9.48;4.22;;;15.60;1.00;;;;;;4950931;29;20406;-69
2023/06/06 04:39:32;;;;;;;8.52;4.10;;;15.70;99.90;;;;;;4932908;29;20438;-69
2023/06/06 04:41:58;;;;;;;10.50;4.00;;;15.90;99.90;;;;;;4964656;28;20415;-68
2023/06/06 04:44:27;;;;;;;8.82;4.13;;;16.00;43.10;;;;;;4968883;28;20490;-69
2023/06/06 04:47:00;;;;;;;8.40;3.80;;;16.10;99.90;;;;;;4950541;29;20423;-69
2023/06/06 04:49:27;;;;;;;9.27;4.43;;;16.30;99.90;;;;;;4958470;28;20487;-69
2023/06/06 04:51:55;;;;;;;10.57;4.68;;;16.50;1.00;;;;;;4981341;28;20531;-69
2023/06/06 04:54:23;;;;;;;10.30;4.50;;;16.90;45.10;;;;;;4988337;28;20480;-68
2023/06/06 04:56:51;;;;;;;9.63;5.17;;;17.60;99.90;;;;;;4968612;28;20484;-68
2023/06/06 04:59:21;;;;;;;8.80;4.10;;;18.40;99.90;;;;;;4968598;28;20495;-68
2023/06/06 05:01:47;;;;;;;9.35;4.10;;;19.10;1.00;;;;;;4968719;28;20484;-69
2023/06/06 05:04:13;;;;;;;8.90;4.30;;;19.80;1.00;;;;;;4969082;28;20719;-69
2023/06/06 05:06:39;;;;;;;9.40;4.10;;;20.40;1.00;;;;;;4967746;28;20530;-69
2023/06/06 05:09:07;;;;;;;9.27;4.35;;;21.20;99.90;;;;;;4968297;28;20392;-69
2023/06/06 05:11:36;;;;;;;8.48;3.90;;;21.60;99.90;;;;;;4968565;28;20394;-69
2023/06/06 05:14:02;;;;;;;9.77;4.38;;;22.10;99.90;;;;;;4963405;28;20419;-69
2023/06/06 05:16:27;;;;;;;8.33;4.10;;;22.20;99.90;;;;;;4969251;28;20392;-69
2023/06/06 05:18:53;;;;;;;9.50;4.00;;;22.50;99.90;;;;;;4968793;28;20400;-69
2023/06/06 05:21:19;;;;;;;9.00;3.80;;;22.70;99.90;;;;;;4968425;28;20757;-69
2023/06/06 05:23:45;;;;;;;8.60;4.10;;;23.20;99.90;;;;;;4979454;28;20409;-69
2023/06/06 05:26:11;;;;;;;8.10;3.75;;;23.80;99.90;;;;;;4973535;28;20621;-69
2023/06/06 05:28:38;;;;;;;12.30;4.40;;;24.20;99.90;;;;;;4968474;28;20421;-69
2023/06/06 05:31:07;;;;;;;9.57;4.30;;;24.70;99.90;;;;;;4971360;28;20395;-69
2023/06/06 05:33:33;;;;;;;12.30;4.70;;;24.10;99.90;;;;;;4972086;28;20423;-69
2023/06/06 05:35:58;;;;;;;9.07;4.32;;;23.50;99.90;;;;;;4972778;28;20482;-69
2023/06/06 05:38:25;;;;;;;9.00;3.70;;;23.20;99.90;;;;;;4968391;28;20475;-68
2023/06/06 05:40:51;;;;;;;9.38;4.10;;;23.20;99.90;;;;;;4974186;28;20409;-69
2023/06/06 05:43:18;;;;;;;10.87;5.10;;;23.30;99.90;;;;;;4990363;28;20384;-69
2023/06/06 05:45:43;;;;;;;9.20;4.20;;;22.80;99.90;;;;;;4973772;28;20530;-69
2023/06/06 05:48:09;;;;;;;8.50;3.95;;;22.60;99.90;;;;;;4972481;28;20580;-69
2023/06/06 05:50:34;;;;;;;13.20;5.47;;;23.50;99.90;;;;;;4950732;28;20960;-69
2023/06/06 05:53:02;;;;;;;8.87;3.93;;;24.60;99.90;;;;;;4970073;28;20410;-69
2023/06/06 05:55:33;;;;;;;8.27;3.72;;;24.50;99.90;;;;;;4972331;28;20865;-69
2023/06/06 05:57:59;;;;;;;8.55;3.92;;;24.70;99.90;;;;;;4966713;28;20412;-70
2023/06/06 06:00:27;;;;;;;8.88;4.50;;;25.20;99.90;;;;;;4972555;28;20399;-69
2023/06/06 06:02:56;;;;;;;8.20;3.78;;;26.20;99.90;;;;;;4972142;28;20767;-67
2023/06/06 06:05:23;;;;;;;7.68;3.13;;;26.60;99.90;;;;;;4971888;28;20467;-67
2023/06/06 06:07:52;;;;;;;10.18;4.40;;;27.30;99.90;;;;;;4971586;28;20428;-67
2023/06/06 06:10:18;;;;;;;10.30;4.20;;;27.40;99.90;;;;;;4971378;28;20388;-67
2023/06/06 06:12:43;;;;;;;11.37;4.30;;;27.30;99.90;;;;;;4963722;28;20392;-67
2023/06/06 06:15:10;;;;;;;9.93;4.40;;;27.50;99.90;;;;;;4970839;28;20407;-67
2023/06/06 06:17:38;;;;;;;11.43;4.72;;;27.80;99.90;;;;;;4965165;28;20389;-67
2023/06/06 06:20:08;;;;;;;7.70;3.50;;;28.10;99.90;;;;;;4967194;28;20392;-68
2023/06/06 06:22:37;;;;;;;8.50;3.70;;;28.40;99.90;;;;;;4959300;28;20906;-68
2023/06/06 06:25:05;;;;;;;10.60;4.07;;;28.40;99.90;;;;;;4946661;29;20771;-68
2023/06/06 06:27:31;;;;;;;8.40;4.00;;;28.50;99.90;;;;;;4934917;29;20930;-68
2023/06/06 06:29:57;;;;;;;8.95;3.80;;;27.90;99.90;;;;;;4952028;29;21030;-68
2023/06/06 06:32:23;;;;;;;8.70;4.20;;;27.30;99.90;;;;;;4969378;28;20436;-68
2023/06/06 06:34:49;;;;;;;9.63;3.50;;;27.40;99.90;;;;;;4970547;28;20918;-67
2023/06/06 06:37:16;;;;;;;10.45;3.30;;;27.20;99.90;;;;;;4971240;28;20396;-68
2023/06/06 06:39:42;;;;;;;7.53;3.17;;;27.70;99.90;;;;;;4971567;28;20503;-67
2023/06/06 06:42:08;;;;;;;7.63;3.50;;;27.70;99.90;;;;;;4970753;28;20448;-68
2023/06/06 06:44:33;;;;;;;9.45;3.55;;;28.00;99.90;;;;;;4970727;28;20392;-68
2023/06/06 06:46:59;;;;;;;8.40;3.80;;;28.10;99.90;;;;;;4971535;28;20401;-68
2023/06/06 06:49:24;;;;;;;9.03;3.27;;;28.70;99.90;;;;;;4970139;28;20404;-68
2023/06/06 06:51:52;;;;;;;7.60;3.87;;;28.30;99.90;;;;;;4976262;28;20578;-68
2023/06/06 06:54:21;;;;;;;9.20;3.58;;;29.00;99.90;;;;;;4971004;28;20466;-68
2023/06/06 06:56:48;;;;;;;8.70;3.60;;;28.70;99.90;;;;;;4971886;28;20422;-68
2023/06/06 06:59:14;;;;;;;9.38;3.35;;;29.10;99.90;;;;;;4970396;28;20404;-68
2023/06/06 07:01:40;;;;;;;8.13;3.22;;;29.60;99.90;;;;;;4960012;28;20446;-67
2023/06/06 07:04:07;;;;;;;8.43;3.45;;;30.10;99.90;;;;;;4970735;28;20722;-68
2023/06/06 07:06:36;;;;;;;8.63;3.80;;;29.90;99.90;;;;;;4987516;28;20829;-68
2023/06/06 07:09:04;;;;;;;9.73;3.65;;;30.30;99.90;;;;;;4975359;28;20913;-68
2023/06/06 07:11:30;;;;;;;10.05;4.20;;;30.90;99.90;;;;;;4971665;28;20825;-68
2023/06/06 07:13:58;;;;;;;8.57;4.30;;;30.90;99.90;;;;;;4972985;28;20487;-68
2023/06/06 07:16:25;;;;;;;7.78;3.38;;;30.40;99.90;;;;;;4968889;28;20417;-68
2023/06/06 07:18:52;;;;;;;8.70;3.75;;;30.80;99.90;;;;;;4974400;28;20492;-68
2023/06/06 07:21:21;;;;;;;10.10;3.73;;;31.00;99.90;;;;;;4969144;28;20788;-69
2023/06/06 07:23:49;;;;;;;9.30;4.03;;;31.20;99.90;;;;;;4970891;28;20404;-69
2023/06/06 07:26:16;;;;;;;10.90;4.10;;;31.00;99.90;;;;;;4970821;28;20389;-68
2023/06/06 07:28:43;;;;;;;8.48;3.17;;;31.10;99.90;;;;;;4970733;28;20486;-69
2023/06/06 07:31:08;;;;;;;8.27;3.65;;;30.60;99.90;;;;;;4986845;28;20402;-69
2023/06/06 07:33:34;;;;;;;7.53;3.20;;;30.60;99.90;;;;;;4989663;28;20888;-69
2023/06/06 07:35:59;;;;;;;10.30;3.77;;;31.10;99.90;;;;;;4990201;28;20770;-69
2023/06/06 07:38:26;;;;;;;7.90;3.30;;;30.60;99.90;;;;;;4989638;28;20425;-69
2023/06/06 07:40:51;;;;;;;7.60;3.28;;;30.60;99.90;;;;;;4989327;28;20697;-69
2023/06/06 07:43:17;;;;;;;9.67;3.40;;;30.30;99.90;;;;;;4973097;28;20392;-69
2023/06/06 07:45:42;;;;;;;8.15;3.45;;;30.70;99.90;;;;;;4970328;28;20397;-69
2023/06/06 07:48:08;;;;;;;8.40;3.60;;;31.10;99.90;;;;;;4970093;28;20486;-69
2023/06/06 07:50:35;;;;;;;7.73;3.60;;;31.50;99.90;;;;;;4969676;28;20420;-69
2023/06/06 07:53:01;;;;;;;8.75;3.22;;;31.60;99.90;;;;;;4969714;28;20503;-69
2023/06/06 07:55:28;;;;;;;8.98;3.95;;;31.50;99.90;;;;;;4968745;28;20949;-69
2023/06/06 07:57:56;;;;;;;9.20;3.50;;;31.80;99.90;;;;;;4970192;28;20725;-69
2023/06/06 08:00:23;;;;;;;7.82;3.58;;;31.40;99.90;;;;;;4969530;28;20412;-69
2023/06/06 08:02:49;;;;;;;7.47;3.10;;;31.50;99.90;;;;;;4960555;28;20782;-69
2023/06/06 08:05:17;;;;;;;9.38;3.58;;;31.50;99.90;;;;;;4969519;28;20412;-69
2023/06/06 08:07:43;;;;;;;8.80;3.28;;;31.70;99.90;;;;;;4964177;28;20428;-69
2023/06/06 08:10:09;;;;;;;10.88;3.25;;;31.40;99.90;;;;;;4969418;28;20988;-69
2023/06/06 08:12:35;;;;;;;9.45;3.38;;;31.40;99.90;;;;;;4969877;28;20404;-69
2023/06/06 08:15:02;;;;;;;7.60;3.10;;;31.40;99.90;;;;;;4970607;28;20404;-69
2023/06/06 08:17:27;;;;;;;7.10;3.05;;;32.00;99.90;;;;;;4969338;28;20454;-69
2023/06/06 08:19:53;;;;;;;8.97;3.30;;;32.20;99.90;;;;;;4968568;28;20400;-69
2023/06/06 08:22:18;;;;;;;7.07;2.90;;;31.50;99.90;;;;;;4983532;28;20405;-69
2023/06/06 08:24:44;;;;;;;8.00;3.20;;;30.80;99.90;;;;;;4985885;28;20391;-69
2023/06/06 08:27:10;;;;;;;7.40;3.50;;;30.90;99.90;;;;;;4964380;28;20743;-69
2023/06/06 08:29:36;;;;;;;7.75;3.30;;;31.50;99.90;;;;;;4969188;28;20411;-69
2023/06/06 08:32:02;;;;;;;8.40;3.10;;;31.20;99.90;;;;;;4969564;28;20408;-69
2023/06/06 08:34:28;;;;;;;8.63;3.40;;;31.50;99.90;;;;;;4969465;28;20408;-69
2023/06/06 08:36:54;;;;;;;8.15;3.30;;;31.90;99.90;;;;;;4968842;28;20414;-69
2023/06/06 08:39:22;;;;;;;8.20;3.10;;;32.70;99.90;;;;;;4969076;28;20408;-69
2023/06/06 08:41:49;;;;;;;7.30;3.30;;;32.70;99.90;;;;;;4968925;28;20478;-69
2023/06/06 08:44:15;;;;;;;7.50;3.00;;;33.10;99.90;;;;;;4972221;28;20459;-69
2023/06/06 08:46:42;;;;;;;8.63;3.25;;;33.20;99.90;;;;;;4978902;28;20412;-69
2023/06/06 08:49:10;;;;;;;7.32;3.00;;;33.20;99.90;;;;;;4972964;28;20475;-69
2023/06/06 08:51:36;;;;;;;7.90;3.13;;;33.50;99.90;;;;;;4943905;28;20440;-69
2023/06/06 08:54:02;;;;;;;10.50;3.72;;;33.50;99.90;;;;;;4966893;28;20411;-69
2023/06/06 08:56:28;;;;;;;8.07;3.20;;;33.60;99.90;;;;;;4969112;28;20937;-69
2023/06/06 08:58:54;;;;;;;7.47;3.30;;;34.00;99.90;;;;;;4969042;28;20424;-70
2023/06/06 09:01:20;;;;;;;7.50;2.97;;;33.60;99.90;;;;;;4951235;28;20404;-69
2023/06/06 09:03:48;;;;;;;7.30;3.03;;;34.30;99.90;;;;;;4967529;28;20415;-70
2023/06/06 09:06:16;;;;;;;8.13;3.40;;;34.90;99.90;;;;;;4949381;28;20454;-70
2023/06/06 09:08:44;;;;;;;7.70;3.50;;;35.40;99.90;;;;;;4969124;28;20527;-70
2023/06/06 09:11:11;;;;;;;7.55;3.67;;;35.20;99.90;;;;;;4951804;28;20396;-69
2023/06/06 09:13:42;;;;;;;8.20;3.10;;;34.80;99.90;;;;;;4969103;28;20426;-70
2023/06/06 09:16:08;;;;;;;7.00;3.10;;;34.30;99.90;;;;;;4968658;28;20392;-69
2023/06/06 09:18:35;;;;;;;8.20;3.30;;;34.40;99.90;;;;;;4969416;28;20502;-69
2023/06/06 09:21:01;;;;;;;8.68;3.40;;;33.90;99.90;;;;;;4969727;28;20395;-70
2023/06/06 09:23:33;;;;;;;6.60;3.20;;;33.00;99.90;;;;;;4970325;28;20458;-70
2023/06/06 09:25:59;;;;;;;7.60;3.10;;;33.40;99.90;;;;;;4969946;28;20451;-70
2023/06/06 09:28:41;;;;;;;7.20;2.90;;;34.30;99.90;;;;;;4968685;28;20571;-70
2023/06/06 09:31:25;;;;;;;7.97;3.22;;;35.30;99.90;;;;;;4969033;28;20397;-70
2023/06/06 09:33:51;;;;;;;8.38;3.30;;;34.90;99.90;;;;;;4969432;28;20409;-70
2023/06/06 09:36:23;;;;;;;10.27;3.80;;;34.90;99.90;;;;;;4969019;28;20504;-70
2023/06/06 09:38:53;;;;;;;7.40;3.30;;;34.30;99.90;;;;;;4968642;28;20392;-70
2023/06/06 09:41:19;;;;;;;8.80;4.40;;;33.80;99.90;;;;;;4951110;28;20415;-70
2023/06/06 09:43:45;;;;;;;8.70;3.40;;;34.20;99.90;;;;;;4960804;28;20400;-70
2023/06/06 09:46:15;;;;;;;8.27;4.10;;;34.80;99.90;;;;;;4968041;28;20396;-70
2023/06/06 09:48:41;;;;;;;8.70;3.43;;;34.50;99.90;;;;;;4968733;28;20447;-70
2023/06/06 09:51:11;;;;;;;7.30;3.60;;;35.00;99.90;;;;;;4968144;28;20446;-70
2023/06/06 09:53:36;;;;;;;9.48;3.80;;;35.50;99.90;;;;;;4968310;28;20452;-70
2023/06/06 09:56:04;;;;;;;8.38;3.90;;;35.40;99.90;;;;;;4950799;28;20504;-70
2023/06/06 09:58:34;;;;;;;7.73;3.23;;;34.50;99.90;;;;;;4968734;28;20501;-70
2023/06/06 10:01:02;;;;;;;7.80;2.95;;;34.50;99.90;;;;;;4968457;28;20396;-70
2023/06/06 10:03:30;;;;;;;7.75;3.50;;;34.10;99.90;;;;;;4968579;28;20889;-70
2023/06/06 10:05:56;;;;;;;7.23;3.30;;;34.70;99.90;;;;;;4968282;28;20401;-70
2023/06/06 10:08:23;;;;;;;8.90;3.60;;;34.30;99.90;;;;;;4967721;28;20486;-70
2023/06/06 10:10:49;;;;;;;8.25;3.30;;;34.20;99.90;;;;;;4968391;28;20805;-70
2023/06/06 10:13:22;;;;;;;8.52;3.97;;;34.30;99.90;;;;;;4973964;28;20388;-70
2023/06/06 10:15:50;;;;;;;8.70;4.35;;;33.80;99.90;;;;;;4975724;28;20446;-69
2023/06/06 10:18:16;;;;;;;10.13;5.28;;;33.60;99.90;;;;;;4973944;28;20435;-69
2023/06/06 10:20:44;;;;;;;9.15;3.42;;;34.20;99.90;;;;;;4973350;28;20415;-70
2023/06/06 10:23:10;;;;;;;9.35;3.65;;;33.80;99.90;;;;;;4973269;28;20890;-69
2023/06/06 10:25:39;;;;;;;8.88;4.20;;;33.90;99.90;;;;;;4954709;28;20411;-69
2023/06/06 10:28:17;;;;;;;9.32;4.05;;;33.20;99.90;;;;;;4971158;28;20868;-70
2023/06/06 10:30:43;;;;;;;10.23;3.85;;;32.30;99.90;;;;;;4971360;28;20411;-70
2023/06/06 10:33:33;;;;;;;8.07;4.20;;;32.20;99.90;;;;;;4971363;28;20579;-70
2023/06/06 10:36:04;;;;;;;9.82;4.00;;;31.90;99.90;;;;;;4971902;28;20403;-69
2023/06/06 10:38:34;;;;;;;9.20;3.65;;;31.30;99.90;;;;;;4972052;28;20401;-69
2023/06/06 10:40:59;;;;;;;8.32;3.92;;;30.50;99.90;;;;;;4971307;28;20404;-69
2023/06/06 10:43:34;;;;;;;8.60;4.20;;;29.90;99.90;;;;;;4970817;28;20415;-69
2023/06/06 10:46:01;;;;;;;8.35;3.72;;;29.90;99.90;;;;;;4971260;28;20858;-69
2023/06/06 10:48:39;;;;;;;9.75;3.90;;;29.80;99.90;;;;;;4971692;28;20427;-69
2023/06/06 10:51:24;;;;;;;9.63;4.18;;;30.00;99.90;;;;;;4970992;28;20420;-69
2023/06/06 10:54:15;;;;;;;8.35;3.90;;;30.20;99.90;;;;;;4971205;28;20398;-69
2023/06/06 10:56:59;;;;;;;7.80;3.85;;;30.10;99.90;;;;;;4970888;28;20416;-69
2023/06/06 10:59:26;;;;;;;8.25;3.90;;;30.10;99.90;;;;;;4971290;28;20476;-70
2023/06/06 11:01:52;;;;;;;8.37;4.07;;;29.80;99.90;;;;;;4970777;28;20392;-69
2023/06/06 11:04:19;;;;;;;8.75;3.65;;;29.60;99.90;;;;;;4970628;28;20392;-69
2023/06/06 11:06:47;;;;;;;9.40;4.00;;;29.70;99.90;;;;;;4970994;28;20396;-69
2023/06/06 11:09:25;;;;;;;8.10;3.83;;;29.70;99.90;;;;;;4970730;28;20407;-69
2023/06/06 11:12:13;;;;;;;10.50;3.80;;;29.80;99.90;;;;;;4970428;28;20392;-69
2023/06/06 11:15:03;;;;;;;9.80;3.90;;;29.60;99.90;;;;;;4970327;28;20805;-69
2023/06/06 11:17:45;;;;;;;8.50;4.10;;;29.50;99.90;;;;;;4971357;28;20403;-69
2023/06/06 11:20:22;;;;;;;9.57;4.30;;;28.80;99.90;;;;;;4970903;28;20477;-69
2023/06/06 11:23:05;;;;;;;8.67;4.20;;;28.80;99.90;;;;;;4970422;28;20408;-69
2023/06/06 11:25:35;;;;;;;8.23;3.92;;;28.70;99.90;;;;;;4970754;28;20771;-69
2023/06/06 11:28:00;;;;;;;7.95;4.10;;;28.90;99.90;;;;;;4970350;28;20412;-69
2023/06/06 11:30:34;;;;;;;8.73;3.80;;;29.10;99.90;;;;;;4970442;28;20690;-69
2023/06/06 11:33:00;;;;;;;7.80;3.80;;;29.00;99.90;;;;;;4971044;28;20833;-69
2023/06/06 11:35:28;;;;;;;7.55;3.85;;;28.20;99.90;;;;;;4970590;28;20412;-69
2023/06/06 11:37:55;;;;;;;9.95;3.33;;;27.90;99.90;;;;;;4970256;28;20539;-69
2023/06/06 11:40:25;;;;;;;8.18;4.10;;;27.90;99.90;;;;;;4970240;28;20916;-69
2023/06/06 11:42:51;;;;;;;8.07;4.00;;;28.00;99.90;;;;;;4977682;28;20424;-69
2023/06/06 11:45:18;;;;;;;9.00;3.80;;;28.30;99.90;;;;;;4974407;28;20442;-69
2023/06/06 11:47:44;;;;;;;7.90;3.92;;;28.30;99.90;;;;;;4971682;28;20932;-69
2023/06/06 11:50:11;;;;;;;7.72;3.33;;;28.40;99.90;;;;;;4971452;28;20499;-69
2023/06/06 11:53:05;;;;;;;7.13;3.30;;;28.90;99.90;;;;;;4970452;28;20400;-69
2023/06/06 11:55:38;;;;;;;7.18;3.25;;;28.80;99.90;;;;;;4968471;28;20991;-70
2023/06/06 11:58:04;;;;;;;8.90;3.53;;;28.30;99.90;;;;;;4969954;28;20901;-69
2023/06/06 12:00:30;;;;;;;8.50;3.90;;;28.10;99.90;;;;;;4970394;28;20452;-69
2023/06/06 12:02:59;;;;;;;9.50;3.85;;;28.10;99.90;;;;;;4970468;28;20400;-70
2023/06/06 12:05:25;;;;;;;9.25;4.15;;;28.10;99.90;;;;;;4970877;28;20388;-70
2023/06/06 12:07:51;;;;;;;9.18;3.60;;;28.00;99.90;;;;;;4970469;28;20794;-68
2023/06/06 12:10:28;;;;;;;9.68;4.13;;;28.20;99.90;;;;;;4970633;28;20529;-68
2023/06/06 12:12:53;;;;;;;7.82;3.58;;;28.30;99.90;;;;;;4970350;28;20402;-69
2023/06/06 12:15:19;;;;;;;8.15;3.60;;;28.30;99.90;;;;;;4969185;28;20810;-69
2023/06/06 12:17:45;;;;;;;10.07;4.03;;;28.00;99.90;;;;;;4969731;28;20493;-69
2023/06/06 12:20:10;;;;;;;8.93;4.00;;;28.30;99.90;;;;;;4969933;28;20392;-69
2023/06/06 12:22:36;;;;;;;8.43;4.10;;;28.50;99.90;;;;;;4970423;28;20400;-69
2023/06/06 12:25:04;;;;;;;8.63;3.90;;;28.60;99.90;;;;;;4970020;28;20901;-70
2023/06/06 12:27:36;;;;;;;8.35;3.83;;;28.80;99.90;;;;;;4969942;28;20542;-70
2023/06/06 12:30:03;;;;;;;8.20;3.90;;;29.10;99.90;;;;;;4969190;28;20566;-70
2023/06/06 12:32:30;;;;;;;10.52;3.40;;;29.00;99.90;;;;;;4969847;28;20913;-70
2023/06/06 12:35:01;;;;;;;12.05;3.75;;;28.80;99.90;;;;;;4953482;28;20415;-70
2023/06/06 12:37:44;;;;;;;8.90;3.88;;;28.90;99.90;;;;;;4969661;28;20423;-69
2023/06/06 12:40:18;;;;;;;8.20;4.07;;;28.80;99.90;;;;;;4967904;28;20402;-70
2023/06/06 12:42:55;;;;;;;8.00;3.40;;;28.90;99.90;;;;;;4969124;28;20846;-69
2023/06/06 12:45:23;;;;;;;8.52;3.92;;;28.80;99.90;;;;;;4968618;28;20831;-70
2023/06/06 12:47:51;;;;;;;9.00;3.92;;;28.80;99.90;;;;;;4969224;28;20503;-69
2023/06/06 12:50:20;;;;;;;9.85;4.43;;;28.60;99.90;;;;;;4968754;28;20419;-69
2023/06/06 12:52:46;;;;;;;9.15;4.50;;;28.00;99.90;;;;;;4968591;28;21093;-69